Time;durP1;ratioP1;P1;durP2;ratioP2;P2;SDS_P1;SDS_P2;PMS_P1;PMS_P2;Temp;Humidity;BMP_temperature;BMP_pressure;BME280_temperature;BME280_humidity;BME280_pressure;Samples;Min_cycle;Max_cycle;Signal;HPM_P1;HPM_P2
2022/10/29 07:32:27;;;;;;;;;22.25;18.25;;;;;16.84;74.29;101561.28;3045120;22;45372;-75
2022/10/29 07:33:37;;;;;;;;;19.75;17.25;;;;;16.84;74.72;101549.84;3041803;22;45991;-75
2022/10/29 07:34:48;;;;;;;;;21.25;17.00;;;;;16.87;74.73;101561.16;3032250;22;45294;-75
2022/10/29 07:35:59;;;;;;;;;19.00;18.00;;;;;16.88;74.69;101546.09;3047990;22;48656;-75
2022/10/29 07:37:09;;;;;;;;;20.00;19.00;;;;;16.90;74.47;101544.22;3059639;22;45183;-75
2022/10/29 07:38:19;;;;;;;;;19.75;18.00;;;;;16.93;74.53;101553.84;3059578;22;46136;-75
2022/10/29 07:39:30;;;;;;;;;19.25;18.75;;;;;16.94;74.70;101559.06;3059181;22;45164;-75
2022/10/29 07:40:49;;;;;;;;;20.50;17.50;;;;;16.97;74.35;101550.97;3042929;22;46962;-75
2022/10/29 07:41:59;;;;;;;;;18.75;18.50;;;;;17.00;74.19;101557.94;3049853;22;44566;-74
2022/10/29 07:43:09;;;;;;;;;19.75;15.75;;;;;17.03;74.68;101552.47;3042647;22;47197;-74
2022/10/29 07:44:20;;;;;;;;;18.75;18.00;;;;;17.07;74.14;101556.69;3032416;22;45364;-75
2022/10/29 07:45:31;;;;;;;;;15.00;13.00;;;;;17.09;74.05;101554.81;3048005;22;45278;-75
2022/10/29 07:46:41;;;;;;;;;18.00;14.75;;;;;17.14;74.44;101559.06;3059730;22;45084;-75
2022/10/29 07:48:03;;;;;;;;;21.75;16.25;;;;;17.18;74.04;101552.72;3042694;22;46820;-75
2022/10/29 07:49:13;;;;;;;;;20.25;14.75;;;;;17.24;74.03;101552.41;3033441;22;45322;-75
2022/10/29 07:50:23;;;;;;;;;23.25;21.00;;;;;17.29;73.96;101552.16;3047558;22;45644;-75
2022/10/29 07:51:34;;;;;;;;;16.50;14.75;;;;;17.34;74.18;101547.50;3058248;22;45215;-75
2022/10/29 07:52:44;;;;;;;;;15.75;14.25;;;;;17.37;74.25;101542.03;3058802;22;52223;-75
2022/10/29 07:53:54;;;;;;;;;18.50;16.75;;;;;17.42;73.81;101542.69;3059613;22;45202;-75
2022/10/29 07:55:06;;;;;;;;;19.50;16.75;;;;;17.48;73.94;101543.31;3059559;22;45233;-75
2022/10/29 07:56:16;;;;;;;;;18.25;14.50;;;;;17.53;73.76;101550.09;3059413;22;45229;-75
2022/10/29 07:57:27;;;;;;;;;13.50;13.50;;;;;17.59;73.93;101556.06;3057539;22;46182;-75
2022/10/29 07:58:38;;;;;;;;;23.00;16.50;;;;;17.64;73.94;101554.91;3059071;22;45240;-75
2022/10/29 07:59:49;;;;;;;;;16.75;14.50;;;;;17.69;73.73;101551.13;3059018;22;45254;-75
2022/10/29 08:00:59;;;;;;;;;16.75;14.25;;;;;17.72;73.38;101562.50;3058876;22;45151;-75
2022/10/29 08:02:10;;;;;;;;;11.25;6.50;;;;;17.77;73.09;101560.47;3059074;22;45251;-75
2022/10/29 08:03:20;;;;;;;;;14.00;14.00;;;;;17.83;72.99;101559.28;3042625;22;45312;-75
2022/10/29 08:04:30;;;;;;;;;15.25;15.25;;;;;17.88;72.76;101569.66;3047876;22;46994;-75
2022/10/29 08:05:41;;;;;;;;;22.00;15.00;;;;;17.93;72.50;101569.44;3059703;22;45265;-75
2022/10/29 08:06:51;;;;;;;;;14.25;12.00;;;;;17.96;72.65;101570.16;3058881;22;45269;-75
2022/10/29 08:08:02;;;;;;;;;13.00;12.00;;;;;17.99;72.20;101569.13;3057678;22;45567;-75
2022/10/29 08:09:12;;;;;;;;;14.75;13.00;;;;;18.05;72.42;101573.28;3058992;22;46612;-75
2022/10/29 08:10:23;;;;;;;;;16.25;13.25;;;;;18.07;72.66;101566.09;3059649;22;45171;-76
2022/10/29 08:11:33;;;;;;;;;16.00;12.50;;;;;18.11;72.10;101572.94;3058763;22;46293;-75
2022/10/29 08:12:55;;;;;;;;;17.00;12.75;;;;;18.15;72.12;101573.66;3059578;22;45096;-75
2022/10/29 08:14:05;;;;;;;;;12.25;8.75;;;;;18.20;71.94;101572.50;3059512;22;46352;-75
2022/10/29 08:15:17;;;;;;;;;18.00;15.00;;;;;18.24;72.11;101573.22;3043157;22;44605;-75
2022/10/29 08:16:27;;;;;;;;;17.75;16.00;;;;;18.26;71.68;101566.00;3047917;22;46107;-76
2022/10/29 08:17:37;;;;;;;;;19.75;18.25;;;;;18.29;71.76;101564.97;3042602;22;45286;-76
2022/10/29 08:18:47;;;;;;;;;22.25;17.75;;;;;18.29;71.56;101564.97;3047451;22;46474;-75
2022/10/29 08:19:58;;;;;;;;;16.50;12.00;;;;;18.32;71.59;101570.16;3043053;22;45384;-75
2022/10/29 08:21:08;;;;;;;;;21.25;15.50;;;;;18.34;71.72;101573.59;3047449;22;46497;-75
2022/10/29 08:22:18;;;;;;;;;19.50;16.25;;;;;18.36;71.32;101560.19;3042953;22;45196;-76
2022/10/29 08:23:29;;;;;;;;;18.50;14.50;;;;;18.38;71.17;101564.50;3047278;22;46550;-76
2022/10/29 08:24:39;;;;;;;;;20.00;16.75;;;;;18.39;71.22;101566.22;3059538;22;45238;-75
2022/10/29 08:25:49;;;;;;;;;14.00;12.25;;;;;18.42;71.22;101575.84;3058537;22;52860;-75
2022/10/29 08:26:59;;;;;;;;;16.25;13.00;;;;;18.43;71.20;101562.44;3059690;22;45277;-76
2022/10/29 08:28:13;;;;;;;;;20.00;14.50;;;;;18.48;71.09;101570.19;3059130;22;49840;-76
2022/10/29 08:29:23;;;;;;;;;15.75;15.25;;;;;18.52;70.87;101570.91;3058909;22;45170;-75
2022/10/29 08:30:33;;;;;;;;;17.50;13.50;;;;;18.54;70.76;101569.00;3042089;22;46068;-75
2022/10/29 08:31:44;;;;;;;;;19.00;15.00;;;;;18.58;70.62;101562.56;3047820;22;45208;-76
2022/10/29 08:32:54;;;;;;;;;15.50;11.75;;;;;18.61;70.55;101565.06;3057154;22;47927;-75
2022/10/29 08:34:04;;;;;;;;;20.75;15.00;;;;;18.65;70.56;101569.28;3058462;22;45230;-75
2022/10/29 08:35:15;;;;;;;;;12.25;11.00;;;;;18.70;70.33;101568.16;3059560;22;45222;-75
2022/10/29 08:36:25;;;;;;;;;17.50;13.50;;;;;18.72;70.15;101559.13;3059275;22;45083;-76
2022/10/29 08:37:40;;;;;;;;;14.25;11.50;;;;;18.77;69.99;101564.22;3042651;22;46953;-75
2022/10/29 08:38:51;;;;;;;;;17.25;15.25;;;;;18.80;69.93;101569.38;3031775;22;45204;-75
2022/10/29 08:40:01;;;;;;;;;12.25;10.25;;;;;18.84;69.38;101565.59;3047291;22;46278;-76
2022/10/29 08:41:24;;;;;;;;;15.50;11.25;;;;;18.89;69.71;101560.00;3059162;22;45366;-75
2022/10/29 08:43:04;;;;;;;;;13.25;11.25;;;;;18.92;69.33;101566.97;3042291;22;47870;-76
2022/10/29 08:44:45;;;;;;;;;11.25;10.25;;;;;18.96;68.96;101560.53;3037104;22;45160;-75
2022/10/29 08:45:56;;;;;;;;;16.25;12.00;;;;;18.98;69.21;101550.66;3054725;22;46422;-75
2022/10/29 08:47:21;;;;;;;;;14.00;12.25;;;;;19.01;69.14;101547.84;3058661;22;45249;-76
2022/10/29 08:48:52;;;;;;;;;11.25;11.25;;;;;19.05;68.91;101551.16;3058635;22;46229;-76
2022/10/29 08:50:23;;;;;;;;;13.50;12.25;;;;;19.06;68.42;101539.56;3059503;22;45265;-75
2022/10/29 08:51:38;;;;;;;;;12.25;11.25;;;;;19.09;68.71;101547.38;3042691;22;47279;-76
2022/10/29 08:52:49;;;;;;;;;12.50;12.50;;;;;19.11;68.62;101546.34;3048238;22;45325;-75
2022/10/29 08:54:00;;;;;;;;;13.25;12.50;;;;;19.14;68.35;101541.81;3059023;22;45274;-75
2022/10/29 08:55:25;;;;;;;;;13.75;12.75;;;;;19.15;67.73;101541.72;3059481;22;45226;-76
2022/10/29 08:56:41;;;;;;;;;12.25;11.25;;;;;19.15;68.14;101540.84;3058816;22;48069;-76
2022/10/29 08:57:55;;;;;;;;;13.25;12.25;;;;;19.19;68.02;101547.75;3058775;22;45250;-76
2022/10/29 08:59:17;;;;;;;;;15.75;12.50;;;;;19.20;67.73;101554.81;3058895;22;46604;-76
2022/10/29 09:00:37;;;;;;;;;12.75;11.75;;;;;19.22;67.82;101553.78;3059053;22;45247;-76
2022/10/29 09:01:47;;;;;;;;;14.25;12.00;;;;;19.25;67.89;101563.41;3039949;22;47005;-76
2022/10/29 09:03:00;;;;;;;;;14.00;12.25;;;;;19.28;68.54;101568.56;3044322;22;44949;-76
2022/10/29 09:04:27;;;;;;;;;11.75;11.25;;;;;19.29;67.68;101578.25;3057676;22;46628;-76
2022/10/29 09:06:06;;;;;;;;;13.25;11.75;;;;;19.33;68.29;101579.78;3059627;22;45250;-76
2022/10/29 09:07:34;;;;;;;;;11.75;9.75;;;;;19.36;68.11;101581.44;3059485;22;46159;-76
2022/10/29 09:09:15;;;;;;;;;11.50;10.25;;;;;19.37;67.45;101577.81;3059540;22;45140;-76
2022/10/29 09:10:36;;;;;;;;;16.25;12.00;;;;;19.42;66.92;101581.09;3059306;22;45268;-76
2022/10/29 09:11:58;;;;;;;;;12.00;11.00;;;;;19.47;67.10;101582.63;3042100;22;44648;-76
2022/10/29 09:13:36;;;;;;;;;11.00;10.00;;;;;19.52;67.05;101581.41;3050392;22;45623;-76
2022/10/29 09:15:24;;;;;;;;;12.75;12.25;;;;;19.59;66.61;101575.72;3058173;22;45199;-76
2022/10/29 09:16:53;;;;;;;;;9.25;9.00;;;;;19.62;66.93;101571.06;3012722;22;45348;-76
2022/10/29 09:18:31;;;;;;;;;14.50;10.50;;;;;19.66;67.20;101575.28;3042909;22;45192;-76
2022/10/29 09:19:41;;;;;;;;;2.75;2.75;;;;;19.70;66.58;101580.44;3053641;22;46475;-76
2022/10/29 09:21:13;;;;;;;;;17.50;9.50;;;;;19.72;66.05;101578.53;3059615;22;45171;-76
2022/10/29 09:22:31;;;;;;;;;14.00;10.25;;;;;19.75;66.10;101581.91;3042803;22;46891;-76
2022/10/29 09:23:50;;;;;;;;;14.00;10.25;;;;;19.78;65.79;101579.03;3043032;22;45239;-76
2022/10/29 09:25:17;;;;;;;;;10.75;10.25;;;;;19.83;65.46;101577.91;3033782;22;48031;-76
2022/10/29 09:26:48;;;;;;;;;12.00;11.00;;;;;19.85;65.47;101576.84;3051963;22;45353;-76
2022/10/29 09:28:16;;;;;;;;;11.50;11.50;;;;;19.90;65.25;101571.25;3016524;22;47190;-76
2022/10/29 09:29:54;;;;;;;;;13.00;10.75;;;;;19.94;65.43;101563.91;3048879;22;44641;-76
2022/10/29 09:31:25;;;;;;;;;10.00;10.00;;;;;19.98;64.93;101570.78;3046267;22;46682;-76
2022/10/29 09:32:41;;;;;;;;;10.25;9.00;;;;;20.00;65.11;101572.41;3041761;22;45524;-76
2022/10/29 09:33:53;;;;;;;;;12.50;10.50;;;;;20.01;65.21;101571.47;3049086;22;46199;-76
2022/10/29 09:35:16;;;;;;;;;12.25;9.00;;;;;20.05;64.93;101565.94;3058991;22;45177;-76
2022/10/29 09:36:29;;;;;;;;;13.25;11.50;;;;;20.07;64.96;101570.25;3042539;22;47278;-76
2022/10/29 09:37:54;;;;;;;;;13.75;10.00;;;;;20.09;64.88;101556.81;3048181;22;45310;-76
2022/10/29 09:39:13;;;;;;;;;13.50;11.50;;;;;20.12;64.50;101567.31;3059377;22;46201;-76
2022/10/29 09:40:31;;;;;;;;;15.50;11.50;;;;;20.16;64.51;101562.66;3042300;22;45223;-76
2022/10/29 09:41:43;;;;;;;;;9.00;8.50;;;;;20.20;64.39;101567.69;3033592;22;46997;-76
2022/10/29 09:42:56;;;;;;;;;14.50;12.00;;;;;20.23;64.38;101567.53;3048176;22;44620;-76
2022/10/29 09:44:22;;;;;;;;;12.50;11.50;;;;;20.28;64.56;101569.03;3042708;22;47216;-76
2022/10/29 09:45:59;;;;;;;;;12.50;8.50;;;;;20.33;64.37;101565.16;3051514;22;44612;-76
2022/10/29 09:47:20;;;;;;;;;10.75;8.00;;;;;20.38;64.01;101583.53;3015307;22;45517;-76
2022/10/29 09:48:48;;;;;;;;;12.75;9.25;;;;;20.40;63.93;101576.28;3059483;22;45142;-76
2022/10/29 09:50:09;;;;;;;;;11.75;9.50;;;;;20.44;63.60;101577.84;3059372;22;46352;-76
2022/10/29 09:51:48;;;;;;;;;14.75;13.25;;;;;20.48;63.85;101569.63;3059111;22;45221;-76
2022/10/29 09:52:58;;;;;;;;;11.75;10.25;;;;;20.52;63.80;101557.81;3042343;22;47292;-76
2022/10/29 09:54:09;;;;;;;;;10.50;8.50;;;;;20.55;63.72;101558.47;3042866;22;45233;-76
2022/10/29 09:55:24;;;;;;;;;11.25;8.25;;;;;20.58;63.73;101552.06;3031826;22;47831;-76
2022/10/29 09:56:38;;;;;;;;;13.75;9.50;;;;;20.60;63.72;101555.50;3048694;22;45085;-76
2022/10/29 09:57:49;;;;;;;;;12.00;11.50;;;;;20.61;63.62;101551.88;3042861;22;47228;-76
2022/10/29 09:59:22;;;;;;;;;11.25;10.00;;;;;20.64;62.90;101559.69;3047691;22;45201;-76
2022/10/29 10:00:33;;;;;;;;;9.50;8.25;;;;;20.65;63.20;101564.09;3058611;22;46169;-76
2022/10/29 10:01:46;;;;;;;;;11.50;9.00;;;;;20.65;63.27;101564.09;3058879;22;45189;-76
2022/10/29 10:03:12;;;;;;;;;11.50;8.00;;;;;20.67;63.15;101564.84;3058893;22;45384;-76
2022/10/29 10:04:29;;;;;;;;;10.25;8.50;;;;;20.68;63.05;101569.25;3059330;22;45138;-76
2022/10/29 10:06:03;;;;;;;;;12.00;9.00;;;;;20.69;62.82;101564.75;3059165;22;45573;-76
2022/10/29 10:07:19;;;;;;;;;10.75;10.00;;;;;20.69;62.04;101562.09;3059516;22;45167;-76
2022/10/29 10:08:31;;;;;;;;;11.25;8.75;;;;;20.69;62.60;101560.25;3059047;22;45399;-76
2022/10/29 10:10:03;;;;;;;;;13.25;10.00;;;;;20.72;62.81;101559.19;3059256;22;45349;-76
2022/10/29 10:11:18;;;;;;;;;10.50;9.00;;;;;20.74;62.79;101565.31;3042617;22;46716;-76
2022/10/29 10:12:35;;;;;;;;;15.50;11.00;;;;;20.75;62.74;101561.69;3048921;22;45278;-76
2022/10/29 10:13:58;;;;;;;;;9.50;9.50;;;;;20.75;62.44;101558.16;3042843;22;47402;-77
2022/10/29 10:15:14;;;;;;;;;8.75;8.50;;;;;20.77;61.96;101558.91;3050110;22;45263;-76
2022/10/29 10:16:31;;;;;;;;;11.00;10.75;;;;;20.78;62.38;101552.63;3042050;22;47890;-76
2022/10/29 10:18:22;;;;;;;;;14.00;9.75;;;;;20.82;62.09;101555.97;3048508;22;45219;-76
2022/10/29 10:19:33;;;;;;;;;9.00;9.00;;;;;20.83;62.14;101555.88;3011090;22;47063;-76
2022/10/29 10:20:46;;;;;;;;;12.75;8.25;;;;;20.85;62.00;101553.94;3046504;22;44546;-75
2022/10/29 10:21:59;;;;;;;;;12.25;9.75;;;;;20.88;61.90;101555.56;3058947;22;45418;-76
2022/10/29 10:23:27;;;;;;;;;9.50;8.75;;;;;20.89;62.25;101560.78;3059133;22;45214;-76
2022/10/29 10:24:39;;;;;;;;;12.00;9.00;;;;;20.90;61.50;101562.53;3059046;22;46094;-76
2022/10/29 10:25:58;;;;;;;;;13.00;9.75;;;;;20.90;62.00;101550.97;3042795;22;45261;-76
2022/10/29 10:27:17;;;;;;;;;9.25;6.75;;;;;20.91;61.82;101550.03;3050103;22;45396;-76
2022/10/29 10:28:30;;;;;;;;;10.50;8.00;;;;;20.91;61.85;101558.03;3059701;22;45309;-76
2022/10/29 10:29:40;;;;;;;;;11.50;9.50;;;;;20.92;61.45;101557.06;3043058;22;47180;-76
2022/10/29 10:31:03;;;;;;;;;12.50;9.00;;;;;20.94;61.57;101559.66;3048081;22;45218;-76
2022/10/29 10:32:15;;;;;;;;;8.25;8.25;;;;;20.94;61.87;101551.66;3042589;22;48418;-76
2022/10/29 10:33:25;;;;;;;;;12.25;9.00;;;;;20.95;61.30;101545.31;3043704;22;45174;-76
2022/10/29 10:34:38;;;;;;;;;10.50;8.25;;;;;20.97;61.54;101546.94;3044370;22;45238;-76
2022/10/29 10:35:48;;;;;;;;;11.00;8.50;;;;;20.99;61.54;101555.72;3028344;22;45113;-76
2022/10/29 10:37:03;;;;;;;;;10.50;8.00;;;;;21.00;60.90;101546.78;3032537;22;46590;-76
2022/10/29 10:38:14;;;;;;;;;9.75;9.25;;;;;21.01;61.60;101543.13;3028262;22;45106;-76
2022/10/29 10:39:35;;;;;;;;;14.25;11.25;;;;;21.03;61.70;101545.72;3033065;22;46349;-76
2022/10/29 10:40:55;;;;;;;;;11.25;8.50;;;;;21.06;61.29;101539.34;3043962;22;44531;-76
2022/10/29 10:42:18;;;;;;;;;9.25;9.25;;;;;21.06;61.56;101542.00;3043182;22;47018;-75
2022/10/29 10:43:28;;;;;;;;;17.75;9.75;;;;;21.07;61.62;101535.69;3044360;22;45354;-75
2022/10/29 10:44:48;;;;;;;;;11.00;10.25;;;;;21.06;61.31;101534.84;3043962;22;45329;-75
2022/10/29 10:46:09;;;;;;;;;11.00;7.50;;;;;21.07;61.09;101539.22;3044464;22;45289;-75
2022/10/29 10:47:24;;;;;;;;;10.75;9.25;;;;;21.07;61.34;101530.34;3042247;22;47988;-76
2022/10/29 10:48:34;;;;;;;;;12.50;10.00;;;;;21.08;61.07;101535.59;3043699;22;44509;-75
2022/10/29 10:49:45;;;;;;;;;12.50;8.25;;;;;21.08;61.16;101527.59;3044294;22;46438;-75
2022/10/29 10:51:24;;;;;;;;;9.50;7.00;;;;;21.08;61.35;101532.94;3028264;22;45216;-75
2022/10/29 10:52:34;;;;;;;;;10.50;6.00;;;;;21.05;60.80;101525.09;3038916;22;46394;-75
2022/10/29 10:53:45;;;;;;;;;10.50;9.25;;;;;21.06;60.97;101524.16;3044823;22;44541;-75
2022/10/29 10:55:01;;;;;;;;;10.00;9.00;;;;;21.05;61.08;101522.44;3044086;22;45349;-75
2022/10/29 10:56:20;;;;;;;;;8.50;8.50;;;;;21.04;61.28;101519.88;3044781;22;45229;-75
2022/10/29 10:57:44;;;;;;;;;9.75;9.75;;;;;21.02;60.76;101511.94;3044031;22;46389;-75
2022/10/29 10:59:04;;;;;;;;;14.50;8.75;;;;;21.00;61.44;101514.72;3044304;22;44566;-75
2022/10/29 11:00:20;;;;;;;;;13.75;9.75;;;;;20.99;61.48;101507.63;3042864;22;47591;-75
2022/10/29 11:01:36;;;;;;;;;9.75;7.75;;;;;20.99;61.20;101517.47;3043779;22;45270;-75
2022/10/29 11:03:02;;;;;;;;;10.25;8.50;;;;;20.97;60.72;101506.00;3043229;22;45503;-75
2022/10/29 11:04:18;;;;;;;;;10.75;7.75;;;;;20.96;60.87;101496.28;3044851;22;45080;-75
2022/10/29 11:05:34;;;;;;;;;10.75;10.75;;;;;20.94;61.01;101501.72;3044178;22;45281;-75
2022/10/29 11:06:48;;;;;;;;;13.25;10.00;;;;;20.94;61.28;101508.91;3044001;22;44611;-75
2022/10/29 11:08:11;;;;;;;;;10.50;8.25;;;;;20.95;61.20;101505.25;3044079;22;46418;-75
2022/10/29 11:09:29;;;;;;;;;11.00;11.00;;;;;20.95;60.91;101500.78;3044663;22;45270;-75
2022/10/29 11:10:47;;;;;;;;;12.00;9.00;;;;;20.94;60.90;101503.56;3042538;22;46911;-75
2022/10/29 11:12:10;;;;;;;;;13.25;13.00;;;;;20.94;61.10;101498.22;3028396;22;45105;-75
2022/10/29 11:13:27;;;;;;;;;8.75;8.75;;;;;20.95;60.94;101498.09;3035250;22;46232;-75
2022/10/29 11:14:48;;;;;;;;;10.00;9.25;;;;;20.93;60.59;101502.69;3044190;22;45277;-75
2022/10/29 11:16:17;;;;;;;;;11.00;8.00;;;;;20.92;61.33;101504.50;3044436;22;45278;-75
2022/10/29 11:17:50;;;;;;;;;11.25;9.75;;;;;20.90;61.39;101505.56;3044173;22;45294;-75
2022/10/29 11:19:24;;;;;;;;;11.00;9.50;;;;;20.88;60.88;101503.00;3014711;22;47384;-75
2022/10/29 11:20:39;;;;;;;;;10.75;9.50;;;;;20.84;61.20;101498.78;3037604;22;45231;-75
2022/10/29 11:22:00;;;;;;;;;9.00;8.75;;;;;20.85;61.09;101511.19;3043468;22;45373;-75
2022/10/29 11:23:19;;;;;;;;;9.75;9.75;;;;;20.87;61.20;101514.63;3044416;22;45179;-75
2022/10/29 11:24:46;;;;;;;;;12.75;9.00;;;;;20.88;60.99;101503.00;3043048;22;47292;-75
2022/10/29 11:26:09;;;;;;;;;5.50;5.50;;;;;20.91;60.96;101505.44;3044194;22;45187;-75
2022/10/29 11:27:28;;;;;;;;;12.50;9.75;;;;;20.95;60.75;101502.56;3044541;22;45599;-75
2022/10/29 11:28:46;;;;;;;;;10.75;10.00;;;;;20.96;61.07;101507.84;3043808;22;45247;-75
2022/10/29 11:30:09;;;;;;;;;8.75;7.50;;;;;20.97;60.77;101495.31;3044497;22;45685;-75
2022/10/29 11:31:30;;;;;;;;;13.00;11.75;;;;;21.01;60.63;101499.56;3044466;22;44667;-75
2022/10/29 11:33:08;;;;;;;;;10.25;9.00;;;;;21.05;60.31;101500.19;3049173;22;46435;-75
2022/10/29 11:34:26;;;;;;;;;13.00;10.00;;;;;21.08;60.88;101494.66;3059734;22;45230;-75
2022/10/29 11:35:42;;;;;;;;;15.25;10.50;;;;;21.09;61.02;101491.88;3042906;22;47062;-75
2022/10/29 11:37:24;;;;;;;;;8.75;8.50;;;;;21.10;60.64;101498.06;3049399;22;45182;-75
2022/10/29 11:38:47;;;;;;;;;11.00;9.50;;;;;21.11;60.72;101492.63;3059647;22;45371;-75
2022/10/29 11:40:22;;;;;;;;;14.00;9.25;;;;;21.12;60.58;101490.81;3059481;22;45234;-75
2022/10/29 11:41:58;;;;;;;;;10.75;8.25;;;;;21.12;60.20;101491.66;3042802;22;47061;-75
2022/10/29 11:43:13;;;;;;;;;9.25;9.25;;;;;21.13;59.84;101482.72;3053460;22;45597;-75
2022/10/29 11:44:25;;;;;;;;;10.25;9.00;;;;;21.14;60.35;101479.06;3059129;22;45440;-75
2022/10/29 11:46:09;;;;;;;;;9.75;9.25;;;;;21.18;60.43;101481.53;3043233;22;45184;-75
2022/10/29 11:47:27;;;;;;;;;9.50;8.00;;;;;21.18;60.72;101478.88;3049530;22;45466;-75
2022/10/29 11:48:46;;;;;;;;;11.25;8.50;;;;;21.17;60.64;101469.13;3059726;22;45131;-76
2022/10/29 11:49:59;;;;;;;;;8.25;6.50;;;;;21.17;60.30;101475.31;3042899;22;47092;-75
2022/10/29 11:51:37;;;;;;;;;12.00;9.00;;;;;21.17;60.33;101472.66;3032516;22;45267;-75
2022/10/29 11:53:00;;;;;;;;;11.75;8.50;;;;;21.18;60.23;101469.03;3053697;22;45487;-76
2022/10/29 11:54:13;;;;;;;;;8.50;8.50;;;;;21.20;59.99;101469.78;3059407;22;45085;-75
2022/10/29 11:55:35;;;;;;;;;10.00;8.00;;;;;21.24;60.03;101462.41;3058996;22;45627;-75
2022/10/29 11:56:51;;;;;;;;;9.00;8.50;;;;;21.25;60.36;101470.34;3059816;22;45089;-75
2022/10/29 11:58:13;;;;;;;;;8.75;7.00;;;;;21.24;60.41;101463.25;3042743;22;47098;-75
2022/10/29 11:59:53;;;;;;;;;11.75;8.25;;;;;21.20;59.70;101467.13;3050967;22;45112;-75
2022/10/29 12:01:32;;;;;;;;;10.75;8.50;;;;;21.18;60.33;101461.03;3059423;22;46267;-75
2022/10/29 12:03:10;;;;;;;;;10.00;9.00;;;;;21.13;59.93;101461.31;3059263;22;45344;-75
2022/10/29 12:04:33;;;;;;;;;9.00;8.00;;;;;21.11;60.01;101457.03;3042887;22;46836;-75
2022/10/29 12:05:50;;;;;;;;;10.50;7.25;;;;;21.09;59.97;101465.16;3050689;22;45277;-75
2022/10/29 12:07:22;;;;;;;;;8.00;7.00;;;;;21.07;59.91;101461.72;3059706;22;45670;-75
2022/10/29 12:08:35;;;;;;;;;10.00;9.00;;;;;21.06;59.80;101460.03;3059467;22;45168;-75
2022/10/29 12:10:13;;;;;;;;;12.00;8.50;;;;;21.07;59.67;101453.69;3043078;22;47431;-75
2022/10/29 12:11:45;;;;;;;;;11.50;9.00;;;;;21.10;60.11;101445.50;3038309;22;45176;-75
2022/10/29 12:13:15;;;;;;;;;11.50;7.75;;;;;21.11;59.41;101441.84;3052481;22;45463;-75
2022/10/29 12:14:32;;;;;;;;;7.50;7.00;;;;;21.12;59.82;101448.91;3059570;22;45210;-75
2022/10/29 12:15:55;;;;;;;;;11.00;9.00;;;;;21.12;59.44;101448.91;3059532;22;45592;-75
2022/10/29 12:17:31;;;;;;;;;7.75;7.75;;;;;21.10;59.86;101447.28;3042625;22;45283;-75
2022/10/29 12:18:51;;;;;;;;;9.00;8.00;;;;;21.06;59.89;101449.34;3050135;22;46251;-75
2022/10/29 12:20:26;;;;;;;;;10.75;8.00;;;;;21.03;59.42;101441.50;3059264;22;45182;-75
2022/10/29 12:22:01;;;;;;;;;9.50;8.25;;;;;21.03;59.82;101438.84;3059597;22;46343;-75
2022/10/29 12:23:14;;;;;;;;;3.50;3.00;;;;;21.03;59.70;101444.19;3059507;22;45261;-75
2022/10/29 12:24:46;;;;;;;;;9.75;7.50;;;;;21.04;59.35;101445.88;3059443;22;45251;-75
2022/10/29 12:26:07;;;;;;;;;9.50;8.00;;;;;21.06;59.27;101444.00;3059750;22;45140;-75
2022/10/29 12:27:26;;;;;;;;;8.75;8.25;;;;;21.05;60.59;101436.91;3059182;22;45473;-75
2022/10/29 12:28:43;;;;;;;;;9.00;8.00;;;;;21.05;59.28;101433.38;3059732;22;45135;-75
2022/10/29 12:30:01;;;;;;;;;9.75;7.75;;;;;21.07;59.19;101444.81;3059058;22;45378;-75
2022/10/29 12:31:23;;;;;;;;;9.75;8.25;;;;;21.09;59.38;101437.56;3042064;22;44578;-75
2022/10/29 12:32:48;;;;;;;;;7.50;7.00;;;;;21.10;59.56;101429.47;3042015;22;47461;-75
2022/10/29 12:34:12;;;;;;;;;11.25;7.75;;;;;21.16;59.36;101432.69;3042373;22;45211;-75
2022/10/29 12:35:37;;;;;;;;;10.75;7.00;;;;;21.17;59.25;101437.03;3045400;22;45501;-75
2022/10/29 12:37:00;;;;;;;;;9.75;7.75;;;;;21.22;59.05;101426.91;3057829;22;45459;-75
2022/10/29 12:38:29;;;;;;;;;11.50;7.75;;;;;21.27;59.27;101430.13;3058082;22;46359;-75
2022/10/29 12:39:57;;;;;;;;;11.25;8.50;;;;;21.29;59.28;101435.34;3041789;22;45262;-75
2022/10/29 12:41:19;;;;;;;;;4.25;4.25;;;;;21.32;59.09;101430.66;3034238;22;47700;-75
2022/10/29 12:42:30;;;;;;;;;8.75;7.50;;;;;21.36;59.03;101423.28;3033372;22;45289;-75
2022/10/29 12:43:42;;;;;;;;;9.00;7.50;;;;;21.40;58.80;101422.13;3046169;22;46129;-75
2022/10/29 12:45:11;;;;;;;;;8.00;6.00;;;;;21.42;59.19;101427.34;3058360;22;45742;-76
2022/10/29 12:46:46;;;;;;;;;7.00;7.00;;;;;21.43;58.63;101429.09;3040632;22;45726;-75
2022/10/29 12:48:04;;;;;;;;;10.00;7.00;;;;;21.43;58.81;101419.25;3051535;22;45651;-75
2022/10/29 12:49:56;;;;;;;;;9.00;7.75;;;;;21.46;58.75;101418.16;3058118;22;46309;-75
2022/10/29 12:51:27;;;;;;;;;9.50;7.75;;;;;21.47;58.91;101425.22;3011034;22;45256;-75
2022/10/29 12:52:47;;;;;;;;;9.00;7.75;;;;;21.48;58.57;101422.44;3058167;22;45296;-75
2022/10/29 12:54:13;;;;;;;;;11.00;8.00;;;;;21.50;58.94;101425.03;3057928;22;45269;-75
2022/10/29 12:55:24;;;;;;;;;10.75;6.50;;;;;21.50;58.80;101435.72;3057852;22;45434;-75
2022/10/29 12:56:34;;;;;;;;;14.25;8.50;;;;;21.51;58.39;101432.06;3058035;22;45398;-75
2022/10/29 12:57:44;;;;;;;;;13.25;8.25;;;;;21.50;58.33;101427.69;3057756;22;45361;-75
2022/10/29 12:58:58;;;;;;;;;8.50;7.00;;;;;21.48;58.45;101432.31;3058415;22;45148;-75
2022/10/29 13:00:44;;;;;;;;;8.50;7.00;;;;;21.48;58.71;101427.78;3057805;22;45330;-75
2022/10/29 13:01:55;;;;;;;;;10.00;8.25;;;;;21.48;58.04;101424.28;3057071;22;45190;-75
2022/10/29 13:03:07;;;;;;;;;9.00;7.00;;;;;21.49;58.66;101423.31;3057962;22;46053;-75
2022/10/29 13:04:28;;;;;;;;;11.00;7.50;;;;;21.50;58.70;101424.16;3058024;22;44644;-75
2022/10/29 13:05:41;;;;;;;;;8.00;5.50;;;;;21.48;58.57;101430.47;3057008;22;45452;-75
2022/10/29 13:07:19;;;;;;;;;12.50;7.00;;;;;21.50;58.38;101427.69;3057967;22;44596;-75
2022/10/29 13:08:33;;;;;;;;;8.00;7.00;;;;;21.45;58.17;101430.69;3058092;22;45258;-75
2022/10/29 13:09:43;;;;;;;;;7.25;6.75;;;;;21.45;58.45;101438.72;3040925;22;45294;-75
2022/10/29 13:10:55;;;;;;;;;9.50;9.50;;;;;21.45;58.21;101430.69;3045547;22;45440;-75
2022/10/29 13:12:10;;;;;;;;;6.50;6.50;;;;;21.44;58.41;101431.66;3057399;22;45246;-75
2022/10/29 13:13:36;;;;;;;;;9.25;8.50;;;;;21.43;58.33;101440.66;3057779;22;45545;-75
2022/10/29 13:14:59;;;;;;;;;7.25;5.75;;;;;21.44;58.67;101441.47;3058837;22;45237;-75
2022/10/29 13:16:20;;;;;;;;;9.50;8.00;;;;;21.42;58.18;101435.38;3058313;22;46255;-75
2022/10/29 13:17:37;;;;;;;;;9.00;6.00;;;;;21.41;58.17;101429.16;3058105;22;45214;-75
2022/10/29 13:19:02;;;;;;;;;9.75;7.00;;;;;21.42;58.42;101432.72;3041932;22;47080;-75
2022/10/29 13:20:35;;;;;;;;;9.75;8.75;;;;;21.39;58.06;101428.44;3034072;22;45248;-75
2022/10/29 13:22:02;;;;;;;;;10.00;8.00;;;;;21.36;58.43;101434.84;3050819;22;47935;-75
2022/10/29 13:23:22;;;;;;;;;9.75;6.75;;;;;21.36;58.43;101440.19;3058123;22;45301;-75
2022/10/29 13:24:32;;;;;;;;;9.75;7.75;;;;;21.36;58.01;101440.19;3058368;22;46589;-75
2022/10/29 13:25:47;;;;;;;;;8.00;7.25;;;;;21.38;58.27;101447.25;3041618;22;45208;-75
2022/10/29 13:27:01;;;;;;;;;11.00;9.00;;;;;21.38;58.25;101448.13;3047676;22;45295;-75
2022/10/29 13:28:14;;;;;;;;;8.50;8.50;;;;;21.41;57.96;101447.06;3058430;22;45235;-75
2022/10/29 13:29:41;;;;;;;;;10.50;7.75;;;;;21.42;57.73;101443.41;3041553;22;47028;-75
2022/10/29 13:30:52;;;;;;;;;8.25;7.25;;;;;21.45;57.50;101443.19;3050224;22;45352;-75
2022/10/29 13:32:05;;;;;;;;;6.75;5.75;;;;;21.46;57.75;101428.84;3056772;22;46212;-75
2022/10/29 13:33:27;;;;;;;;;8.00;6.75;;;;;21.46;58.14;101432.38;3041374;22;45266;-75
2022/10/29 13:34:58;;;;;;;;;9.50;7.50;;;;;21.49;57.70;101425.97;3049180;22;46347;-75
2022/10/29 13:36:15;;;;;;;;;9.75;7.25;;;;;21.52;57.71;101430.25;3058545;22;45273;-75
2022/10/29 13:37:50;;;;;;;;;9.00;7.50;;;;;21.52;58.12;101430.25;3041272;22;47058;-75